createdAt,value
2022-12-27T00:00:54.184Z,1.72
2022-12-27T00:03:20.716Z,1.73
2022-12-27T00:05:47.771Z,1.67
2022-12-27T00:08:14.502Z,1.63
2022-12-27T00:10:40.993Z,1.69
2022-12-27T00:13:07.588Z,1.64
2022-12-27T00:15:34.898Z,1.63
2022-12-27T00:18:01.632Z,1.66
2022-12-27T00:20:28.472Z,1.72
2022-12-27T00:22:55.209Z,1.78
2022-12-27T00:25:21.661Z,1.71
2022-12-27T00:27:48.118Z,1.71
2022-12-27T00:30:14.626Z,1.73
2022-12-27T00:32:41.089Z,1.69
2022-12-27T00:35:07.834Z,1.78
2022-12-27T00:37:34.304Z,1.81
2022-12-27T00:40:00.782Z,1.79
2022-12-27T00:42:27.296Z,1.84
2022-12-27T00:44:53.766Z,1.86
2022-12-27T00:47:20.310Z,1.99
2022-12-27T00:49:46.780Z,2.08
2022-12-27T00:52:13.350Z,2.02
2022-12-27T00:54:39.812Z,1.96
2022-12-27T00:57:06.353Z,2.05
2022-12-27T00:59:32.862Z,2.10
2022-12-27T01:01:59.709Z,2.05
2022-12-27T01:04:26.277Z,2.02
2022-12-27T01:06:52.788Z,1.84
2022-12-27T01:09:19.236Z,1.83
2022-12-27T01:11:45.698Z,1.84
2022-12-27T01:14:12.151Z,1.78
2022-12-27T01:16:40.082Z,1.85
2022-12-27T01:19:06.727Z,1.90
2022-12-27T01:21:33.234Z,1.93
2022-12-27T01:23:59.756Z,1.87
2022-12-27T01:26:26.230Z,1.94
2022-12-27T01:28:52.887Z,1.93
2022-12-27T01:31:21.804Z,1.89
2022-12-27T01:33:48.660Z,2.01
2022-12-27T01:36:19.695Z,2.05
2022-12-27T01:38:48.071Z,1.98
2022-12-27T01:41:35.153Z,2.02
2022-12-27T01:44:01.825Z,1.96
2022-12-27T01:46:28.996Z,2.11
2022-12-27T01:48:55.719Z,2.13
2022-12-27T01:51:22.206Z,2.11
2022-12-27T01:53:49.194Z,2.05
2022-12-27T01:56:19.539Z,2.04
2022-12-27T01:58:57.616Z,2.09
2022-12-27T02:01:27.384Z,2.04
2022-12-27T02:04:05.488Z,2.07
2022-12-27T02:06:31.999Z,2.09
2022-12-27T02:09:13.793Z,2.09
2022-12-27T02:11:51.654Z,2.03
2022-12-27T02:14:24.728Z,2.01
2022-12-27T02:16:54.349Z,2.00
2022-12-27T02:19:57.240Z,2.16
2022-12-27T02:22:52.565Z,2.17
2022-12-27T02:25:55.469Z,2.14
2022-12-27T02:28:47.837Z,2.18
2022-12-27T02:31:39.018Z,2.16
2022-12-27T02:34:12.564Z,2.23
2022-12-27T02:36:39.052Z,2.19
2022-12-27T02:39:05.512Z,2.28
2022-12-27T02:41:51.308Z,2.25
2022-12-27T02:44:37.390Z,2.41
2022-12-27T02:47:23.948Z,2.34
2022-12-27T02:50:09.134Z,2.25
2022-12-27T02:53:09.885Z,2.26
2022-12-27T02:56:20.609Z,2.28
2022-12-27T02:58:55.995Z,2.49
2022-12-27T03:01:58.846Z,2.38
2022-12-27T03:04:33.089Z,2.40
2022-12-27T03:07:17.780Z,2.35
2022-12-27T03:10:08.352Z,2.41
2022-12-27T03:12:59.393Z,2.41
2022-12-27T03:15:52.399Z,2.39
2022-12-27T03:18:28.100Z,2.46
2022-12-27T03:21:16.605Z,2.46
2022-12-27T03:24:02.528Z,2.56
2022-12-27T03:26:29.651Z,2.55
2022-12-27T03:29:14.891Z,2.56
2022-12-27T03:31:59.938Z,2.53
2022-12-27T03:34:32.860Z,2.56
2022-12-27T03:37:22.675Z,2.56
2022-12-27T03:40:06.896Z,2.60
2022-12-27T03:42:55.924Z,2.68
2022-12-27T03:45:42.379Z,2.62
2022-12-27T03:48:08.863Z,2.69
2022-12-27T03:50:40.154Z,2.72
2022-12-27T03:53:12.499Z,2.71
2022-12-27T03:55:38.961Z,2.68
2022-12-27T03:58:05.499Z,2.70
2022-12-27T04:00:32.070Z,2.65
2022-12-27T04:02:58.672Z,2.77
2022-12-27T04:05:25.212Z,2.70
2022-12-27T04:08:10.257Z,2.72
2022-12-27T04:10:55.282Z,2.76
2022-12-27T04:13:40.237Z,2.79
2022-12-27T04:16:25.846Z,2.83
2022-12-27T04:19:10.994Z,2.87
2022-12-27T04:21:55.921Z,2.83
2022-12-27T04:24:41.197Z,2.82
2022-12-27T04:27:26.063Z,2.92
2022-12-27T04:30:11.286Z,2.98
2022-12-27T04:32:56.264Z,2.82
2022-12-27T04:35:22.723Z,2.89
2022-12-27T04:37:49.207Z,2.87
2022-12-27T04:40:34.393Z,2.99
2022-12-27T04:43:19.535Z,2.94
2022-12-27T04:46:04.827Z,2.96
2022-12-27T04:48:49.842Z,2.98
2022-12-27T04:51:34.848Z,2.95
2022-12-27T04:54:19.631Z,3.03
2022-12-27T04:56:46.117Z,3.01
2022-12-27T04:59:31.188Z,2.98
2022-12-27T05:02:03.683Z,3.08
2022-12-27T05:04:31.257Z,3.06
2022-12-27T05:06:57.734Z,3.08
2022-12-27T05:09:42.990Z,3.05
2022-12-27T05:12:31.046Z,3.03
2022-12-27T05:14:57.504Z,3.03
2022-12-27T05:17:23.974Z,3.04
2022-12-27T05:19:50.470Z,3.03
2022-12-27T05:22:35.591Z,3.11
2022-12-27T05:25:20.579Z,3.12
2022-12-27T05:27:47.061Z,3.16
2022-12-27T05:30:13.517Z,3.14
2022-12-27T05:32:40.010Z,3.21
2022-12-27T05:35:06.683Z,3.23
2022-12-27T05:37:33.136Z,3.19
2022-12-27T05:39:59.589Z,3.20
2022-12-27T05:42:26.063Z,3.20
2022-12-27T05:44:52.520Z,3.13
2022-12-27T05:47:18.984Z,3.20
2022-12-27T05:49:45.437Z,3.22
2022-12-27T05:52:11.915Z,3.20
2022-12-27T05:54:38.389Z,3.21
2022-12-27T05:57:04.879Z,3.16
2022-12-27T05:59:31.357Z,3.24
2022-12-27T06:01:57.977Z,3.15
2022-12-27T06:04:24.549Z,3.10
2022-12-27T06:06:51.027Z,3.18
2022-12-27T06:09:17.528Z,3.18
2022-12-27T06:11:44.012Z,3.16
2022-12-27T06:14:10.493Z,3.16
2022-12-27T06:16:36.980Z,3.20
2022-12-27T06:19:03.489Z,3.20
2022-12-27T06:21:29.980Z,3.20
2022-12-27T06:23:56.482Z,3.17
2022-12-27T06:26:25.607Z,3.26
2022-12-27T06:28:52.208Z,3.17
2022-12-27T06:31:19.533Z,3.21
2022-12-27T06:33:46.943Z,3.24
2022-12-27T06:36:14.583Z,3.31
2022-12-27T06:38:41.153Z,3.26
2022-12-27T06:41:09.278Z,3.28
2022-12-27T06:43:36.039Z,3.20
2022-12-27T06:46:04.718Z,3.17
2022-12-27T06:48:31.410Z,3.28
2022-12-27T06:50:57.928Z,3.26
2022-12-27T06:53:24.519Z,3.17
2022-12-27T06:55:51.013Z,3.22
2022-12-27T06:58:17.481Z,3.24
2022-12-27T07:00:43.996Z,3.22
2022-12-27T07:03:10.596Z,3.24
2022-12-27T07:05:37.100Z,3.31
2022-12-27T07:08:03.702Z,3.24
2022-12-27T07:10:30.217Z,3.26
2022-12-27T07:12:57.200Z,3.27
2022-12-27T07:15:23.774Z,3.24
2022-12-27T07:17:50.312Z,3.30
2022-12-27T07:20:17.077Z,3.26
2022-12-27T07:22:43.541Z,3.29
2022-12-27T07:25:10.011Z,3.30
2022-12-27T07:27:36.828Z,3.26
2022-12-27T07:30:04.355Z,3.31
2022-12-27T07:32:30.837Z,3.24
2022-12-27T07:34:57.310Z,3.36
2022-12-27T07:37:23.951Z,3.34
2022-12-27T07:39:50.400Z,3.34
2022-12-27T07:42:16.874Z,3.40
2022-12-27T07:44:43.359Z,3.33
2022-12-27T07:47:09.817Z,3.42
2022-12-27T07:49:36.321Z,3.44
2022-12-27T07:52:02.795Z,3.38
2022-12-27T07:54:29.271Z,3.38
2022-12-27T07:56:55.729Z,3.46
2022-12-27T07:59:22.430Z,3.41
2022-12-27T08:02:07.223Z,3.52
2022-12-27T08:04:35.503Z,3.43
2022-12-27T08:07:07.124Z,3.45
2022-12-27T08:09:35.763Z,3.40
2022-12-27T08:12:02.295Z,3.45
2022-12-27T08:14:28.924Z,3.44
2022-12-27T08:16:57.889Z,3.59
2022-12-27T08:19:24.383Z,3.52
2022-12-27T08:21:51.182Z,3.49
2022-12-27T08:24:17.945Z,3.43
2022-12-27T08:26:44.655Z,3.43
2022-12-27T08:29:11.149Z,3.51
2022-12-27T08:31:37.623Z,3.53
2022-12-27T08:34:04.176Z,3.52
2022-12-27T08:36:54.565Z,3.44
2022-12-27T08:39:17.188Z,3.47
2022-12-27T08:41:43.662Z,3.46
2022-12-27T08:44:10.474Z,3.51
2022-12-27T08:46:36.996Z,3.58
2022-12-27T08:49:03.648Z,3.59
2022-12-27T08:51:35.885Z,3.53
2022-12-27T08:54:06.840Z,3.55
2022-12-27T08:56:33.297Z,3.52
2022-12-27T08:58:59.836Z,3.54
2022-12-27T09:01:26.693Z,3.56
2022-12-27T09:03:53.451Z,3.55
2022-12-27T09:06:21.336Z,3.56
2022-12-27T09:08:48.220Z,3.66
2022-12-27T09:11:16.301Z,3.57
2022-12-27T09:13:42.814Z,3.60
2022-12-27T09:16:11.084Z,3.56
2022-12-27T09:18:41.076Z,3.64
2022-12-27T09:21:12.759Z,3.53
2022-12-27T09:23:39.383Z,3.64
2022-12-27T09:26:10.296Z,3.54
2022-12-27T09:28:36.907Z,3.62
2022-12-27T09:31:03.721Z,3.61
2022-12-27T09:33:30.271Z,3.59
2022-12-27T09:36:10.619Z,3.60
2022-12-27T09:38:37.095Z,3.60
2022-12-27T09:42:33.728Z,3.74
2022-12-27T09:44:37.465Z,3.77
2022-12-27T09:47:10.641Z,3.76
2022-12-27T09:49:49.047Z,3.70
2022-12-27T09:52:17.852Z,3.72
2022-12-27T09:54:44.258Z,3.79
2022-12-27T09:57:20.306Z,3.82
2022-12-27T09:59:52.161Z,3.77
2022-12-27T10:02:23.349Z,3.72
2022-12-27T10:05:19.169Z,3.71
2022-12-27T10:07:45.854Z,3.81
2022-12-27T10:10:25.068Z,3.77
2022-12-27T10:13:03.643Z,3.78
2022-12-27T10:15:32.284Z,3.75
2022-12-27T10:18:20.495Z,3.76
2022-12-27T10:20:56.577Z,3.87
2022-12-27T10:23:32.153Z,3.89
2022-12-27T10:26:06.107Z,3.89
2022-12-27T10:28:43.809Z,3.97
2022-12-27T10:31:15.083Z,3.90
2022-12-27T10:33:41.599Z,4.02
2022-12-27T10:36:10.373Z,3.99
2022-12-27T10:38:36.854Z,3.96
2022-12-27T10:41:24.635Z,4.00
2022-12-27T10:43:52.298Z,3.99
2022-12-27T10:46:20.900Z,3.96
2022-12-27T10:49:21.039Z,4.06
2022-12-27T10:51:49.181Z,4.09
2022-12-27T10:54:27.026Z,4.16
2022-12-27T10:56:53.982Z,4.05
2022-12-27T10:59:25.089Z,4.04
2022-12-27T11:02:15.152Z,3.98
2022-12-27T11:04:56.145Z,4.14
2022-12-27T11:07:22.599Z,4.12
2022-12-27T11:09:51.395Z,4.13
2022-12-27T11:12:21.730Z,4.19
2022-12-27T11:14:55.086Z,4.11
2022-12-27T11:17:42.555Z,4.18
2022-12-27T11:20:14.890Z,4.24
2022-12-27T11:22:45.761Z,4.24
2022-12-27T11:25:13.551Z,4.30
2022-12-27T11:27:40.012Z,4.27
2022-12-27T11:30:07.451Z,4.34
2022-12-27T11:32:33.915Z,4.37
2022-12-27T11:35:00.381Z,4.39
2022-12-27T11:37:26.845Z,4.32
2022-12-27T11:40:12.673Z,4.33
2022-12-27T11:42:45.929Z,4.21
2022-12-27T11:45:22.962Z,4.33
2022-12-27T11:48:21.928Z,4.31
2022-12-27T11:50:56.456Z,4.28
2022-12-27T11:53:41.169Z,4.22
2022-12-27T11:56:24.143Z,4.32
2022-12-27T11:59:02.306Z,4.31
2022-12-27T12:02:05.208Z,4.40
2022-12-27T12:04:51.537Z,4.49
2022-12-27T12:07:44.277Z,4.44
2022-12-27T12:10:29.369Z,4.52
2022-12-27T12:13:09.019Z,4.78
2022-12-27T12:16:08.792Z,4.90
2022-12-27T12:19:00.907Z,4.73
2022-12-27T12:21:30.062Z,4.75
2022-12-27T12:24:32.121Z,4.96
2022-12-27T12:27:10.686Z,4.96
2022-12-27T12:29:58.922Z,5.05
2022-12-27T12:32:51.524Z,4.97
2022-12-27T12:35:45.743Z,4.83
2022-12-27T12:38:20.398Z,4.74
2022-12-27T12:41:11.269Z,4.62
2022-12-27T12:44:22.436Z,4.46
2022-12-27T12:47:23.980Z,4.66
2022-12-27T12:50:13.569Z,4.56
2022-12-27T12:52:58.648Z,4.52
2022-12-27T12:55:38.531Z,4.52
2022-12-27T12:58:32.981Z,4.47
2022-12-27T13:01:14.654Z,4.59
2022-12-27T13:04:07.163Z,4.55
2022-12-27T13:06:42.168Z,4.53
2022-12-27T13:09:12.969Z,4.51
2022-12-27T13:11:54.662Z,4.50
2022-12-27T13:14:27.060Z,4.58
2022-12-27T13:16:59.436Z,4.63
2022-12-27T13:19:48.191Z,4.59
2022-12-27T13:22:36.439Z,4.61
2022-12-27T13:25:15.082Z,4.70
2022-12-27T13:28:12.447Z,4.68
2022-12-27T13:30:42.779Z,4.66
2022-12-27T13:33:43.333Z,4.68
2022-12-27T13:36:36.098Z,4.71
2022-12-27T13:39:21.499Z,4.71
2022-12-27T13:42:52.819Z,4.83
2022-12-27T13:45:37.839Z,4.83
2022-12-27T13:48:15.020Z,4.87
2022-12-27T13:50:43.835Z,4.86
2022-12-27T13:53:21.261Z,4.87
2022-12-27T13:56:51.486Z,4.80
2022-12-27T13:59:23.581Z,4.96
2022-12-27T14:02:31.336Z,4.87
2022-12-27T14:05:00.940Z,4.82
2022-12-27T14:07:48.890Z,4.78
2022-12-27T14:10:18.270Z,4.98
2022-12-27T14:12:55.945Z,4.86
2022-12-27T14:15:32.841Z,4.94
2022-12-27T14:18:20.956Z,4.95
2022-12-27T14:20:56.539Z,5.02
2022-12-27T14:23:28.732Z,4.94
2022-12-27T14:26:20.294Z,4.90
2022-12-27T14:29:05.653Z,4.93
2022-12-27T14:32:00.089Z,5.00
2022-12-27T14:34:59.094Z,5.09
2022-12-27T14:37:41.101Z,5.04
2022-12-27T14:40:24.057Z,4.94
2022-12-27T14:43:05.607Z,5.00
2022-12-27T14:45:57.884Z,4.86
2022-12-27T14:49:23.734Z,4.91
2022-12-27T14:52:27.502Z,4.84
2022-12-27T14:55:12.198Z,4.81
2022-12-27T14:57:51.057Z,4.84
2022-12-27T15:00:18.942Z,4.81
2022-12-27T15:02:56.471Z,4.85
2022-12-27T15:05:31.589Z,4.76
2022-12-27T15:08:22.741Z,4.81
2022-12-27T15:10:59.128Z,4.87
2022-12-27T15:13:52.920Z,4.80
2022-12-27T15:20:27.230Z,4.71
2022-12-27T15:23:13.692Z,4.73
2022-12-27T15:25:54.231Z,4.70
2022-12-27T15:28:28.870Z,4.66
2022-12-27T15:31:07.680Z,4.63
2022-12-27T15:33:57.543Z,4.56
2022-12-27T15:36:38.091Z,4.63
2022-12-27T15:39:04.712Z,4.63
2022-12-27T15:41:50.879Z,4.82
2022-12-27T15:44:30.232Z,4.75
2022-12-27T15:47:21.643Z,4.76
2022-12-27T15:50:08.232Z,4.68
2022-12-27T15:53:12.507Z,4.66
2022-12-27T15:55:57.513Z,4.67
2022-12-27T15:58:24.244Z,4.64
2022-12-27T16:01:23.668Z,4.71
2022-12-27T16:03:52.294Z,4.69
2022-12-27T16:06:33.859Z,4.65
2022-12-27T16:09:23.771Z,4.63
2022-12-27T16:12:11.426Z,4.64
2022-12-27T16:14:41.953Z,4.72
2022-12-27T16:17:59.675Z,4.61
2022-12-27T16:20:26.085Z,4.66
2022-12-27T16:22:53.902Z,4.71
2022-12-27T16:25:31.138Z,4.80
2022-12-27T16:28:19.607Z,4.67
2022-12-27T16:30:52.992Z,4.71
2022-12-27T16:33:26.925Z,4.81
2022-12-27T16:36:16.210Z,4.83
2022-12-27T16:38:46.341Z,4.79
2022-12-27T16:41:25.769Z,4.78
2022-12-27T16:44:01.225Z,4.70
2022-12-27T16:46:46.011Z,4.92
2022-12-27T16:49:24.168Z,4.84
2022-12-27T16:52:12.305Z,4.73
2022-12-27T16:55:16.491Z,4.62
2022-12-27T16:57:52.368Z,4.66
2022-12-27T17:00:41.278Z,4.62
2022-12-27T17:03:28.215Z,4.65
2022-12-27T17:08:41.520Z,4.79
2022-12-27T17:11:27.816Z,5.00
2022-12-27T17:14:18.685Z,4.84
2022-12-27T17:16:49.920Z,5.08
2022-12-27T17:19:30.762Z,4.95
2022-12-27T17:21:59.324Z,5.01
2022-12-27T17:24:25.815Z,5.07
2022-12-27T17:27:21.135Z,4.91
2022-12-27T17:30:17.543Z,4.77
2022-12-27T17:33:11.334Z,4.86
2022-12-27T17:35:56.392Z,4.89
2022-12-27T17:38:44.258Z,4.95
2022-12-27T17:41:17.623Z,5.00
2022-12-27T17:44:18.568Z,5.05
2022-12-27T17:46:55.265Z,5.20
2022-12-27T17:49:29.387Z,5.15
2022-12-27T17:52:14.600Z,5.06
2022-12-27T17:54:59.681Z,5.06
2022-12-27T17:57:44.620Z,5.01
2022-12-27T18:00:25.301Z,5.11
2022-12-27T18:02:55.397Z,5.08
2022-12-27T18:05:27.429Z,5.08
2022-12-27T18:08:30.246Z,5.04
2022-12-27T18:10:57.271Z,5.06
2022-12-27T18:13:25.527Z,5.04
2022-12-27T18:15:52.033Z,5.06
2022-12-27T18:18:26.990Z,5.09
2022-12-27T18:20:56.247Z,5.12
2022-12-27T18:23:22.735Z,5.22
2022-12-27T18:25:51.058Z,5.33
2022-12-27T18:28:33.840Z,5.26
2022-12-27T18:31:09.118Z,5.15
2022-12-27T18:33:55.007Z,5.15
2022-12-27T18:36:27.065Z,5.11
2022-12-27T18:39:10.558Z,5.12
2022-12-27T18:41:38.770Z,5.15
2022-12-27T18:44:05.422Z,5.16
2022-12-27T18:46:33.839Z,5.19
2022-12-27T18:49:00.367Z,5.22
2022-12-27T18:51:37.238Z,5.26
2022-12-27T18:54:29.809Z,5.29
2022-12-27T18:56:57.128Z,5.17
2022-12-27T18:59:28.670Z,5.14
2022-12-27T19:01:56.635Z,5.11
2022-12-27T19:04:25.391Z,5.03
2022-12-27T19:07:01.125Z,4.98
2022-12-27T19:09:33.051Z,4.95
2022-12-27T19:12:02.092Z,4.93
2022-12-27T19:14:42.695Z,4.85
2022-12-27T19:17:15.853Z,5.03
2022-12-27T19:19:46.055Z,4.96
2022-12-27T19:22:41.453Z,4.98
2022-12-27T19:25:34.516Z,4.91
2022-12-27T19:28:10.086Z,4.93
2022-12-27T19:30:39.171Z,4.84
2022-12-27T19:33:09.087Z,4.94
2022-12-27T19:35:35.578Z,4.88
2022-12-27T19:38:02.317Z,4.86
2022-12-27T19:40:29.497Z,4.85
2022-12-27T19:43:00.230Z,4.96
2022-12-27T19:45:28.628Z,5.04
2022-12-27T19:47:57.926Z,4.95
2022-12-27T19:50:24.749Z,4.90
2022-12-27T19:52:52.822Z,4.92
2022-12-27T19:55:23.026Z,4.91
2022-12-27T19:57:50.763Z,4.80
2022-12-27T20:00:19.393Z,4.74
2022-12-27T20:02:46.027Z,4.79
2022-12-27T20:05:12.572Z,4.68
2022-12-27T20:07:39.203Z,4.63
2022-12-27T20:10:05.991Z,4.58
2022-12-27T20:12:32.458Z,4.48
2022-12-27T20:14:58.920Z,4.47
2022-12-27T20:17:25.526Z,4.39
2022-12-27T20:19:52.005Z,4.35
2022-12-27T20:22:18.510Z,4.41
2022-12-27T20:24:47.121Z,4.31
2022-12-27T20:27:13.594Z,4.22
2022-12-27T20:29:40.081Z,4.22
2022-12-27T20:32:06.845Z,4.21
2022-12-27T20:34:33.379Z,4.16
2022-12-27T20:37:00.482Z,4.11
2022-12-27T20:39:27.142Z,4.10
2022-12-27T20:41:53.623Z,4.01
2022-12-27T20:44:20.101Z,3.97
2022-12-27T20:46:47.555Z,3.83
2022-12-27T20:49:14.091Z,3.81
2022-12-27T20:51:41.531Z,3.74
2022-12-27T20:54:08.014Z,3.70
2022-12-27T20:56:35.170Z,3.66
2022-12-27T20:59:01.966Z,3.56
2022-12-27T21:01:28.536Z,3.58
2022-12-27T21:03:56.067Z,3.53
2022-12-27T21:06:24.416Z,3.52
2022-12-27T21:08:56.738Z,3.28
2022-12-27T21:11:26.903Z,3.28
2022-12-27T21:13:53.397Z,3.26
2022-12-27T21:16:27.164Z,3.21
2022-12-27T21:18:53.784Z,3.17
2022-12-27T21:21:21.911Z,3.13
2022-12-27T21:23:49.374Z,3.06
2022-12-27T21:26:18.031Z,3.01
2022-12-27T21:28:45.568Z,2.92
2022-12-27T21:31:12.839Z,3.00
2022-12-27T21:33:42.293Z,2.81
2022-12-27T21:36:12.108Z,2.70
2022-12-27T21:38:38.896Z,2.78
2022-12-27T21:41:08.702Z,2.84
2022-12-27T21:43:35.655Z,2.79
2022-12-27T21:46:10.048Z,2.85
2022-12-27T21:48:38.639Z,2.74
2022-12-27T21:51:10.976Z,2.77
2022-12-27T21:53:40.274Z,2.64
2022-12-27T21:56:07.101Z,2.71
2022-12-27T21:58:34.930Z,2.62
2022-12-27T22:01:08.174Z,2.57
2022-12-27T22:03:39.226Z,2.49
2022-12-27T22:06:22.526Z,2.60
2022-12-27T22:08:51.261Z,2.52
2022-12-27T22:11:18.363Z,2.47
2022-12-27T22:13:45.007Z,2.55
2022-12-27T22:16:16.945Z,2.59
2022-12-27T22:18:45.008Z,2.47
2022-12-27T22:21:13.539Z,2.32
2022-12-27T22:23:41.791Z,2.37
2022-12-27T22:26:12.806Z,2.28
2022-12-27T22:28:39.625Z,2.37
2022-12-27T22:31:10.990Z,2.57
2022-12-27T22:33:37.510Z,2.52
2022-12-27T22:36:14.756Z,2.54
2022-12-27T22:38:41.276Z,2.51
2022-12-27T22:41:12.546Z,2.58
2022-12-27T22:43:39.516Z,2.51
2022-12-27T22:46:07.848Z,2.44
2022-12-27T22:48:34.657Z,2.54
2022-12-27T22:51:12.901Z,2.56
2022-12-27T22:53:39.639Z,2.66
2022-12-27T22:56:15.641Z,2.61
2022-12-27T22:58:42.101Z,2.49
2022-12-27T23:01:16.008Z,2.44
2022-12-27T23:03:42.611Z,2.54
2022-12-27T23:06:10.761Z,2.61
2022-12-27T23:08:37.281Z,2.62
2022-12-27T23:11:08.807Z,2.61
2022-12-27T23:13:35.397Z,2.59
2022-12-27T23:16:02.149Z,2.63
2022-12-27T23:18:28.717Z,2.60
2022-12-27T23:21:21.654Z,2.62
2022-12-27T23:23:41.818Z,2.63
2022-12-27T23:26:15.861Z,2.58
2022-12-27T23:28:43.831Z,2.58
2022-12-27T23:31:13.313Z,2.54
2022-12-27T23:33:40.473Z,2.55
2022-12-27T23:36:07.505Z,2.53
2022-12-27T23:38:34.057Z,2.56
2022-12-27T23:41:01.717Z,2.50
2022-12-27T23:46:28.437Z,2.59
2022-12-27T23:48:55.651Z,2.59
2022-12-27T23:51:22.291Z,2.58
2022-12-27T23:53:49.022Z,2.57
2022-12-27T23:56:20.451Z,2.54
2022-12-27T23:58:47.155Z,2.56
